Time;durP1;ratioP1;P1;durP2;ratioP2;P2;SDS_P1;SDS_P2;PMS_P1;PMS_P2;Temp;Humidity;BMP_temperature;BMP_pressure;BME280_temperature;BME280_humidity;BME280_pressure;Samples;Min_cycle;Max_cycle;Signal;HPM_P1;HPM_P2
2023/12/19 00:01:32;;;;;;;69.40;28.33;;;;;;;;;;5030772;28;20053;-72
2023/12/19 00:03:58;;;;;;;60.58;26.25;;;;;;;;;;5030379;28;20099;-72
2023/12/19 00:06:24;;;;;;;61.40;27.90;;;;;;;;;;5030060;28;20042;-72
2023/12/19 00:08:50;;;;;;;58.38;26.88;;;;;;;;;;5030987;28;20584;-72
2023/12/19 00:11:16;;;;;;;56.10;26.95;;;;;;;;;;5030552;28;20048;-72
2023/12/19 00:13:42;;;;;;;56.55;25.75;;;;;;;;;;5028174;28;20404;-71
2023/12/19 00:16:08;;;;;;;62.63;27.23;;;;;;;;;;5031175;28;20128;-71
2023/12/19 00:18:34;;;;;;;52.92;24.85;;;;;;;;;;5029756;28;20053;-71
2023/12/19 00:21:00;;;;;;;52.65;24.77;;;;;;;;;;5031313;28;20045;-71
2023/12/19 00:23:30;;;;;;;51.63;24.90;;;;;;;;;;5031179;28;20132;-70
2023/12/19 00:25:56;;;;;;;55.33;25.33;;;;;;;;;;5031416;28;20728;-71
2023/12/19 00:28:23;;;;;;;54.75;24.63;;;;;;;;;;5030958;28;20408;-71
2023/12/19 00:30:49;;;;;;;53.03;24.50;;;;;;;;;;5033631;28;20542;-71
2023/12/19 00:33:15;;;;;;;56.20;25.25;;;;;;;;;;5034645;28;20057;-71
2023/12/19 00:35:41;;;;;;;44.58;22.58;;;;;;;;;;5042456;28;20732;-71
2023/12/19 00:38:07;;;;;;;46.67;21.90;;;;;;;;;;5035942;28;20045;-71
2023/12/19 00:40:33;;;;;;;45.08;22.77;;;;;;;;;;5033739;28;20041;-71
2023/12/19 00:42:59;;;;;;;46.65;23.02;;;;;;;;;;5032007;28;20045;-71
2023/12/19 00:45:25;;;;;;;47.25;22.42;;;;;;;;;;5025349;28;20083;-71
2023/12/19 00:47:51;;;;;;;42.65;21.45;;;;;;;;;;5033619;28;20040;-71
2023/12/19 00:50:18;;;;;;;47.70;22.58;;;;;;;;;;5033996;28;20033;-71
2023/12/19 00:52:44;;;;;;;40.78;20.55;;;;;;;;;;5034194;28;20120;-71
2023/12/19 00:55:10;;;;;;;44.58;22.42;;;;;;;;;;5029357;28;20113;-71
2023/12/19 00:57:36;;;;;;;48.03;23.23;;;;;;;;;;5035743;28;20514;-71
2023/12/19 01:00:02;;;;;;;44.28;22.58;;;;;;;;;;5032476;28;20041;-71
2023/12/19 01:02:28;;;;;;;46.83;21.20;;;;;;;;;;5033972;28;20431;-71
2023/12/19 01:04:56;;;;;;;44.95;22.20;;;;;;;;;;5038667;28;20099;-71
2023/12/19 01:07:22;;;;;;;41.17;19.27;;;;;;;;;;5029165;28;20037;-71
2023/12/19 01:09:48;;;;;;;38.22;20.33;;;;;;;;;;5030240;28;20037;-71
2023/12/19 01:12:14;;;;;;;41.45;19.95;;;;;;;;;;5030861;28;20124;-71
2023/12/19 01:14:40;;;;;;;37.63;20.10;;;;;;;;;;5029668;28;20038;-71
2023/12/19 01:17:06;;;;;;;39.55;18.58;;;;;;;;;;5025244;28;20037;-71
2023/12/19 01:19:33;;;;;;;33.17;17.92;;;;;;;;;;5031461;28;20068;-71
2023/12/19 01:21:59;;;;;;;38.75;20.05;;;;;;;;;;5027920;28;20045;-71
2023/12/19 01:24:24;;;;;;;33.22;17.98;;;;;;;;;;5031806;28;20090;-71
2023/12/19 01:26:51;;;;;;;36.33;19.88;;;;;;;;;;5034029;28;20056;-72
2023/12/19 01:29:18;;;;;;;36.25;19.08;;;;;;;;;;5026709;28;20049;-72
2023/12/19 01:31:44;;;;;;;34.65;18.90;;;;;;;;;;5021882;28;20041;-72
2023/12/19 01:34:11;;;;;;;34.63;18.55;;;;;;;;;;5030658;28;20037;-72
2023/12/19 01:36:39;;;;;;;33.97;18.20;;;;;;;;;;5026055;28;20521;-72
2023/12/19 01:39:05;;;;;;;31.15;17.60;;;;;;;;;;5031471;28;20057;-72
2023/12/19 01:41:31;;;;;;;31.67;16.65;;;;;;;;;;5033409;28;20053;-72
2023/12/19 01:43:59;;;;;;;35.22;18.30;;;;;;;;;;5033283;28;20041;-72
2023/12/19 01:46:25;;;;;;;38.15;19.52;;;;;;;;;;5031919;28;20087;-72
2023/12/19 01:48:51;;;;;;;35.85;18.77;;;;;;;;;;5033469;28;20045;-72
2023/12/19 01:51:18;;;;;;;33.83;18.05;;;;;;;;;;5032527;28;20037;-72
2023/12/19 01:53:45;;;;;;;33.67;18.55;;;;;;;;;;5033270;28;20095;-72
2023/12/19 01:56:12;;;;;;;34.28;18.20;;;;;;;;;;5031639;28;20041;-72
2023/12/19 01:58:38;;;;;;;34.95;17.65;;;;;;;;;;5039102;28;20056;-72
2023/12/19 02:01:04;;;;;;;36.83;19.00;;;;;;;;;;5030611;28;20037;-72
2023/12/19 02:03:32;;;;;;;38.03;19.38;;;;;;;;;;5030735;28;20389;-72
2023/12/19 02:05:59;;;;;;;34.33;18.50;;;;;;;;;;5027516;28;20404;-72
2023/12/19 02:08:26;;;;;;;32.85;18.10;;;;;;;;;;5031247;28;20039;-72
2023/12/19 02:10:52;;;;;;;36.00;18.30;;;;;;;;;;5027990;28;20087;-72
2023/12/19 02:13:19;;;;;;;34.67;17.67;;;;;;;;;;5031727;28;20484;-72
2023/12/19 02:15:45;;;;;;;35.35;18.23;;;;;;;;;;5032205;28;20407;-72
2023/12/19 02:18:15;;;;;;;33.65;18.50;;;;;;;;;;5039733;28;20120;-72
2023/12/19 02:20:41;;;;;;;34.88;18.38;;;;;;;;;;5032365;28;20041;-72
2023/12/19 02:23:07;;;;;;;31.17;17.38;;;;;;;;;;5023409;28;20052;-72
2023/12/19 02:25:33;;;;;;;33.83;19.13;;;;;;;;;;5032383;28;20065;-72
2023/12/19 02:28:00;;;;;;;29.08;17.13;;;;;;;;;;5032403;28;20060;-72
2023/12/19 02:30:26;;;;;;;30.52;17.13;;;;;;;;;;5032658;28;20570;-72
2023/12/19 02:32:53;;;;;;;31.67;18.33;;;;;;;;;;5030372;28;20072;-72
2023/12/19 02:35:19;;;;;;;31.80;17.38;;;;;;;;;;5030430;28;20045;-72
2023/12/19 02:37:45;;;;;;;33.05;17.63;;;;;;;;;;5032743;28;20048;-72
2023/12/19 02:40:12;;;;;;;29.88;15.50;;;;;;;;;;5031415;28;20042;-72
2023/12/19 02:42:41;;;;;;;35.22;18.95;;;;;;;;;;5031571;28;20045;-72
2023/12/19 02:45:08;;;;;;;30.10;15.93;;;;;;;;;;5035081;28;20091;-72
2023/12/19 02:47:34;;;;;;;33.45;17.80;;;;;;;;;;5036669;28;20065;-72
2023/12/19 02:50:00;;;;;;;29.73;17.13;;;;;;;;;;5031885;28;20069;-72
2023/12/19 02:52:26;;;;;;;32.90;18.33;;;;;;;;;;5035682;28;20045;-72
2023/12/19 02:54:52;;;;;;;31.13;17.10;;;;;;;;;;5034087;28;20037;-72
2023/12/19 02:57:18;;;;;;;29.85;16.90;;;;;;;;;;5037090;28;20453;-72
2023/12/19 02:59:44;;;;;;;28.38;16.20;;;;;;;;;;5031854;28;20048;-72
2023/12/19 03:02:10;;;;;;;30.83;16.48;;;;;;;;;;5032911;28;20095;-72
2023/12/19 03:04:38;;;;;;;28.80;16.40;;;;;;;;;;5030427;28;20038;-72
2023/12/19 03:07:04;;;;;;;29.92;16.00;;;;;;;;;;5031804;28;20376;-72
2023/12/19 03:09:30;;;;;;;28.45;16.08;;;;;;;;;;5032797;28;20117;-72
2023/12/19 03:12:22;;;;;;;23.75;15.00;;;;;;;;;;5031234;28;20072;-72
2023/12/19 03:14:48;;;;;;;27.90;14.10;;;;;;;;;;5022709;28;20049;-72
2023/12/19 03:17:14;;;;;;;27.42;14.57;;;;;;;;;;5032697;28;20406;-72
2023/12/19 03:19:40;;;;;;;27.23;15.13;;;;;;;;;;5030083;28;20045;-72
2023/12/19 03:22:06;;;;;;;26.50;14.40;;;;;;;;;;5030891;28;20087;-72
2023/12/19 03:24:32;;;;;;;27.20;14.23;;;;;;;;;;5031475;28;20041;-72
2023/12/19 03:26:58;;;;;;;28.38;13.48;;;;;;;;;;5036847;28;20037;-72
2023/12/19 03:29:24;;;;;;;25.20;13.82;;;;;;;;;;5031016;28;20404;-72
2023/12/19 03:31:50;;;;;;;24.60;14.00;;;;;;;;;;5030855;28;20037;-72
2023/12/19 03:34:16;;;;;;;25.33;13.85;;;;;;;;;;5031199;28;20124;-72
2023/12/19 03:36:42;;;;;;;22.98;13.65;;;;;;;;;;5031491;28;20044;-72
2023/12/19 03:39:08;;;;;;;24.98;13.23;;;;;;;;;;5030940;28;20121;-71
2023/12/19 03:41:35;;;;;;;24.45;12.95;;;;;;;;;;5030884;28;20045;-71
2023/12/19 03:44:01;;;;;;;21.65;12.75;;;;;;;;;;5031227;28;20187;-71
2023/12/19 03:46:27;;;;;;;24.95;13.98;;;;;;;;;;5031217;28;20045;-71
2023/12/19 03:48:53;;;;;;;29.42;14.65;;;;;;;;;;5030508;28;20044;-71
2023/12/19 03:51:19;;;;;;;25.00;13.57;;;;;;;;;;5030847;28;20041;-71
2023/12/19 03:53:45;;;;;;;24.33;13.63;;;;;;;;;;5030870;28;20084;-72
2023/12/19 03:56:12;;;;;;;25.17;13.68;;;;;;;;;;5027048;28;20040;-72
2023/12/19 03:58:39;;;;;;;29.17;14.27;;;;;;;;;;5031547;28;20080;-72
2023/12/19 04:01:05;;;;;;;21.48;12.55;;;;;;;;;;5031324;28;20476;-72
2023/12/19 04:03:31;;;;;;;26.58;14.25;;;;;;;;;;5029095;28;20069;-72
2023/12/19 04:05:57;;;;;;;22.92;13.50;;;;;;;;;;5029652;28;20072;-72
2023/12/19 04:08:23;;;;;;;26.52;14.30;;;;;;;;;;5028301;28;20113;-72
2023/12/19 04:10:49;;;;;;;24.90;14.18;;;;;;;;;;5035184;28;20034;-72
2023/12/19 04:13:15;;;;;;;22.80;12.75;;;;;;;;;;5036329;28;20050;-72
2023/12/19 04:15:41;;;;;;;25.77;13.75;;;;;;;;;;5031442;28;20037;-72
2023/12/19 04:18:09;;;;;;;26.65;13.93;;;;;;;;;;5045856;22;20037;-67
2023/12/19 04:20:35;;;;;;;25.35;13.40;;;;;;;;;;5036272;28;20052;-67
2023/12/19 04:23:01;;;;;;;24.55;12.68;;;;;;;;;;5035347;28;20041;-65
2023/12/19 04:25:26;;;;;;;25.75;13.63;;;;;;;;;;5028378;28;20542;-66
2023/12/19 04:27:52;;;;;;;22.98;12.95;;;;;;;;;;5054461;22;20514;-63
2023/12/19 04:30:18;;;;;;;22.35;13.02;;;;;;;;;;5052713;28;20446;-63
2023/12/19 04:32:44;;;;;;;24.40;13.50;;;;;;;;;;5036649;28;20037;-63
2023/12/19 04:35:10;;;;;;;18.92;10.95;;;;;;;;;;5053529;28;20172;-63
2023/12/19 04:37:36;;;;;;;24.48;13.07;;;;;;;;;;5052347;28;20132;-63
2023/12/19 04:40:03;;;;;;;19.45;10.85;;;;;;;;;;5054681;28;20127;-63
2023/12/19 04:42:29;;;;;;;22.50;11.65;;;;;;;;;;5052828;28;20481;-64
2023/12/19 04:44:55;;;;;;;21.30;11.40;;;;;;;;;;5054674;28;20120;-64
2023/12/19 04:47:21;;;;;;;19.92;11.25;;;;;;;;;;5052642;28;20094;-64
2023/12/19 04:49:47;;;;;;;23.67;11.85;;;;;;;;;;5054716;28;20083;-64
2023/12/19 04:52:13;;;;;;;20.95;11.98;;;;;;;;;;5053413;28;20041;-64
2023/12/19 04:54:39;;;;;;;24.13;11.25;;;;;;;;;;5053362;28;20041;-64
2023/12/19 04:57:05;;;;;;;21.42;11.20;;;;;;;;;;5052888;28;20052;-64
2023/12/19 04:59:32;;;;;;;20.60;11.77;;;;;;;;;;5052945;28;20110;-64
2023/12/19 05:01:58;;;;;;;20.85;12.40;;;;;;;;;;5052320;28;20080;-64
2023/12/19 05:04:24;;;;;;;19.40;10.95;;;;;;;;;;5052822;28;20190;-63
2023/12/19 05:06:50;;;;;;;21.50;11.68;;;;;;;;;;5052099;28;20140;-64
2023/12/19 05:09:16;;;;;;;23.48;11.45;;;;;;;;;;5052416;28;20044;-64
2023/12/19 05:11:44;;;;;;;20.25;11.15;;;;;;;;;;5053201;28;20413;-64
2023/12/19 05:14:10;;;;;;;18.48;10.40;;;;;;;;;;5053012;28;20562;-64
2023/12/19 05:16:36;;;;;;;22.80;11.20;;;;;;;;;;5053173;28;20515;-64
2023/12/19 05:19:04;;;;;;;21.52;11.38;;;;;;;;;;5052154;28;20045;-64
2023/12/19 05:21:30;;;;;;;19.65;10.80;;;;;;;;;;5053516;28;20095;-64
2023/12/19 05:23:56;;;;;;;17.67;10.57;;;;;;;;;;5053412;28;20074;-64
2023/12/19 05:26:22;;;;;;;21.13;10.98;;;;;;;;;;5053371;28;20065;-65
2023/12/19 05:28:48;;;;;;;19.30;11.27;;;;;;;;;;5051526;28;20550;-65
2023/12/19 05:31:16;;;;;;;21.67;11.57;;;;;;;;;;5053065;28;20036;-64
2023/12/19 05:33:43;;;;;;;19.50;11.10;;;;;;;;;;5051760;28;20449;-64
2023/12/19 05:36:12;;;;;;;19.90;11.27;;;;;;;;;;5053726;28;20340;-64
2023/12/19 05:38:38;;;;;;;16.98;9.32;;;;;;;;;;5052461;28;20493;-63
2023/12/19 05:41:04;;;;;;;16.05;9.65;;;;;;;;;;5035145;28;20047;-64
2023/12/19 05:43:30;;;;;;;16.10;9.02;;;;;;;;;;5050192;28;20045;-63
2023/12/19 05:45:56;;;;;;;17.65;9.90;;;;;;;;;;5051798;28;20037;-64
2023/12/19 05:48:22;;;;;;;15.93;9.32;;;;;;;;;;5053244;28;20041;-64
2023/12/19 05:50:49;;;;;;;15.50;9.45;;;;;;;;;;5053240;28;20045;-64
2023/12/19 05:53:15;;;;;;;16.92;8.77;;;;;;;;;;5053059;28;20041;-64
2023/12/19 05:55:43;;;;;;;16.08;8.32;;;;;;;;;;5052069;28;20053;-65
2023/12/19 05:58:09;;;;;;;16.50;8.82;;;;;;;;;;5053101;28;20508;-64
2023/12/19 06:00:35;;;;;;;15.38;8.43;;;;;;;;;;5034791;28;20131;-64
2023/12/19 06:03:01;;;;;;;15.25;9.10;;;;;;;;;;5051108;28;20041;-64
2023/12/19 06:05:27;;;;;;;16.77;9.00;;;;;;;;;;5051655;28;20098;-64
2023/12/19 06:07:53;;;;;;;15.65;9.00;;;;;;;;;;5051652;28;20545;-64
2023/12/19 06:10:19;;;;;;;13.75;8.13;;;;;;;;;;5052475;28;20063;-65
2023/12/19 06:12:46;;;;;;;14.68;8.05;;;;;;;;;;5051166;28;20041;-64
2023/12/19 06:15:15;;;;;;;15.93;8.73;;;;;;;;;;5051745;28;20515;-64
2023/12/19 06:17:41;;;;;;;14.02;8.52;;;;;;;;;;5050788;28;20055;-64
2023/12/19 06:20:08;;;;;;;15.32;8.10;;;;;;;;;;5051424;28;20052;-64
2023/12/19 06:22:34;;;;;;;12.48;7.68;;;;;;;;;;5058383;28;20123;-65
2023/12/19 06:25:00;;;;;;;12.57;7.57;;;;;;;;;;5072570;28;20079;-64
2023/12/19 06:27:27;;;;;;;12.60;7.65;;;;;;;;;;5070020;28;20049;-64
2023/12/19 06:29:55;;;;;;;15.07;8.05;;;;;;;;;;5063872;28;20120;-64
2023/12/19 06:32:21;;;;;;;12.55;7.45;;;;;;;;;;5050720;28;20056;-64
2023/12/19 06:34:47;;;;;;;12.05;7.10;;;;;;;;;;5050535;28;20056;-65
2023/12/19 06:37:13;;;;;;;12.65;7.25;;;;;;;;;;5052262;28;20041;-64
2023/12/19 06:39:39;;;;;;;15.00;7.45;;;;;;;;;;5050705;28;20049;-65
2023/12/19 06:42:05;;;;;;;16.08;8.35;;;;;;;;;;5050547;28;20496;-64
2023/12/19 06:44:31;;;;;;;12.90;7.68;;;;;;;;;;5050947;28;20037;-65
2023/12/19 06:46:57;;;;;;;12.82;7.30;;;;;;;;;;5034282;28;20041;-64
2023/12/19 06:49:24;;;;;;;11.13;7.25;;;;;;;;;;5044416;28;20507;-64
2023/12/19 06:51:51;;;;;;;13.27;8.00;;;;;;;;;;5032471;28;20084;-65
2023/12/19 06:54:17;;;;;;;11.93;7.60;;;;;;;;;;5070499;28;20045;-65
2023/12/19 06:56:43;;;;;;;13.70;7.78;;;;;;;;;;5074695;28;20040;-65
2023/12/19 06:59:09;;;;;;;14.98;7.95;;;;;;;;;;5070445;28;20045;-65
2023/12/19 07:01:35;;;;;;;14.40;8.45;;;;;;;;;;5070054;28;20051;-64
2023/12/19 07:04:03;;;;;;;14.60;8.35;;;;;;;;;;5071595;28;20075;-64
2023/12/19 07:06:29;;;;;;;17.60;8.60;;;;;;;;;;5070660;28;20052;-65
2023/12/19 07:08:55;;;;;;;13.18;8.10;;;;;;;;;;5069933;28;20041;-64
2023/12/19 07:11:21;;;;;;;13.45;7.85;;;;;;;;;;5070199;28;20044;-64
2023/12/19 07:13:47;;;;;;;13.75;6.80;;;;;;;;;;5070275;28;20123;-64
2023/12/19 07:16:14;;;;;;;13.65;7.63;;;;;;;;;;5070748;28;20149;-64
2023/12/19 07:18:41;;;;;;;12.10;8.20;;;;;;;;;;5070144;28;20166;-64
2023/12/19 07:21:07;;;;;;;13.85;7.32;;;;;;;;;;5071936;28;20476;-64
2023/12/19 07:23:33;;;;;;;17.20;8.23;;;;;;;;;;5071057;28;20049;-64
2023/12/19 07:25:59;;;;;;;12.10;7.28;;;;;;;;;;5071543;28;20037;-64
2023/12/19 07:28:25;;;;;;;12.95;7.95;;;;;;;;;;5071612;28;20503;-63
2023/12/19 07:30:52;;;;;;;13.77;7.30;;;;;;;;;;5071556;28;20549;-64
2023/12/19 07:33:18;;;;;;;11.45;7.18;;;;;;;;;;5070165;28;20123;-64
2023/12/19 07:35:44;;;;;;;12.43;7.07;;;;;;;;;;5071355;28;20515;-64
2023/12/19 07:38:10;;;;;;;14.18;7.50;;;;;;;;;;5069514;28;20041;-64
2023/12/19 07:40:36;;;;;;;15.75;8.15;;;;;;;;;;5074863;28;20158;-65
2023/12/19 07:43:02;;;;;;;12.48;7.00;;;;;;;;;;5074049;28;20055;-64
2023/12/19 07:45:28;;;;;;;13.43;7.65;;;;;;;;;;5075121;28;20385;-64
2023/12/19 07:47:54;;;;;;;12.77;7.22;;;;;;;;;;5074042;28;20072;-64
2023/12/19 07:50:20;;;;;;;16.25;8.48;;;;;;;;;;5074037;28;20480;-64
2023/12/19 07:52:46;;;;;;;13.10;7.10;;;;;;;;;;5075018;28;20121;-64
2023/12/19 07:55:12;;;;;;;11.43;6.90;;;;;;;;;;5056516;28;20052;-66
2023/12/19 07:57:39;;;;;;;10.10;6.13;;;;;;;;;;5053397;28;20128;-68
2023/12/19 08:00:05;;;;;;;11.50;6.22;;;;;;;;;;5055159;28;20033;-64
2023/12/19 08:02:35;;;;;;;11.38;6.60;;;;;;;;;;5052508;28;20048;-65
2023/12/19 08:05:01;;;;;;;10.90;6.35;;;;;;;;;;5054407;28;20045;-65
2023/12/19 08:07:28;;;;;;;8.32;5.18;;;;;;;;;;5054342;28;20409;-64
2023/12/19 08:09:54;;;;;;;10.73;6.45;;;;;;;;;;5052618;28;20041;-64
2023/12/19 08:12:20;;;;;;;10.60;5.72;;;;;;;;;;5053403;28;20543;-64
2023/12/19 08:14:47;;;;;;;10.32;5.80;;;;;;;;;;5053713;28;20041;-64
2023/12/19 08:17:13;;;;;;;11.68;6.70;;;;;;;;;;5054233;28;20128;-64
2023/12/19 08:19:39;;;;;;;10.65;5.68;;;;;;;;;;5059467;28;20041;-66
2023/12/19 08:22:05;;;;;;;9.50;5.75;;;;;;;;;;5067815;28;20037;-65
2023/12/19 08:24:31;;;;;;;8.88;5.60;;;;;;;;;;5067344;28;20049;-65
2023/12/19 08:26:57;;;;;;;11.48;6.28;;;;;;;;;;5069273;28;20554;-64
2023/12/19 08:29:23;;;;;;;9.45;6.00;;;;;;;;;;5067211;28;20072;-67
2023/12/19 08:31:49;;;;;;;8.50;5.30;;;;;;;;;;5067377;28;20536;-65
2023/12/19 08:34:18;;;;;;;9.80;5.47;;;;;;;;;;5068053;28;20045;-66
2023/12/19 08:36:44;;;;;;;9.27;5.75;;;;;;;;;;5063458;28;20052;-66
2023/12/19 08:39:11;;;;;;;9.30;5.50;;;;;;;;;;5069437;28;20104;-66
2023/12/19 08:41:40;;;;;;;10.05;5.90;;;;;;;;;;5069872;28;20068;-66
2023/12/19 08:44:06;;;;;;;9.27;5.38;;;;;;;;;;5071432;28;20052;-66
2023/12/19 08:46:33;;;;;;;7.55;5.35;;;;;;;;;;5053187;28;20037;-67
2023/12/19 08:48:59;;;;;;;9.65;5.53;;;;;;;;;;5066837;28;20041;-67
2023/12/19 08:51:25;;;;;;;8.02;5.28;;;;;;;;;;5064690;28;20060;-67
2023/12/19 08:53:52;;;;;;;8.60;5.28;;;;;;;;;;5065326;28;20052;-67
2023/12/19 08:56:17;;;;;;;8.60;5.72;;;;;;;;;;5073125;28;20559;-65
2023/12/19 08:58:44;;;;;;;10.40;5.82;;;;;;;;;;5065713;28;20076;-65
2023/12/19 09:01:10;;;;;;;8.88;5.65;;;;;;;;;;5062700;28;20047;-67
2023/12/19 09:03:37;;;;;;;9.13;5.72;;;;;;;;;;5048589;28;20516;-67
2023/12/19 09:06:04;;;;;;;12.63;6.25;;;;;;;;;;5062228;28;20037;-67
2023/12/19 09:08:30;;;;;;;12.18;6.85;;;;;;;;;;5064259;28;20044;-66
2023/12/19 09:10:56;;;;;;;11.82;6.75;;;;;;;;;;5061007;28;20167;-65
2023/12/19 09:13:22;;;;;;;11.25;7.15;;;;;;;;;;5061296;28;20041;-66
2023/12/19 09:15:48;;;;;;;12.40;6.53;;;;;;;;;;5061196;28;20053;-66
2023/12/19 09:18:15;;;;;;;11.32;6.20;;;;;;;;;;5059647;28;20078;-65
2023/12/19 09:20:40;;;;;;;12.32;7.07;;;;;;;;;;5063764;28;20068;-66
2023/12/19 09:23:07;;;;;;;13.38;7.25;;;;;;;;;;5066998;28;20036;-67
2023/12/19 09:25:33;;;;;;;13.23;7.45;;;;;;;;;;5068976;28;20045;-67
2023/12/19 09:27:59;;;;;;;11.77;6.70;;;;;;;;;;5065582;28;20097;-66
2023/12/19 09:30:25;;;;;;;13.32;7.30;;;;;;;;;;5047920;28;20029;-67
2023/12/19 09:32:51;;;;;;;15.93;7.60;;;;;;;;;;5063550;28;20064;-66
2023/12/19 09:35:17;;;;;;;12.93;7.25;;;;;;;;;;5061907;28;20052;-66
2023/12/19 09:37:44;;;;;;;15.02;8.00;;;;;;;;;;5065999;28;20040;-66
2023/12/19 09:40:16;;;;;;;12.27;6.90;;;;;;;;;;5071429;28;20111;-67
2023/12/19 09:42:43;;;;;;;12.45;6.88;;;;;;;;;;5058654;28;20041;-67
2023/12/19 09:45:09;;;;;;;13.00;7.68;;;;;;;;;;5066038;28;20041;-65
2023/12/19 09:47:39;;;;;;;11.63;7.07;;;;;;;;;;5061776;28;20033;-66
2023/12/19 09:50:08;;;;;;;12.70;7.57;;;;;;;;;;5066692;28;20035;-67
2023/12/19 09:52:35;;;;;;;18.15;8.50;;;;;;;;;;5062802;28;20048;-67
2023/12/19 09:55:03;;;;;;;15.98;8.38;;;;;;;;;;5065590;28;20039;-66
2023/12/19 09:57:33;;;;;;;14.93;8.27;;;;;;;;;;5059109;28;20045;-66
2023/12/19 10:00:08;;;;;;;17.30;8.40;;;;;;;;;;5060015;28;20110;-66
2023/12/19 10:02:34;;;;;;;17.23;9.07;;;;;;;;;;5051572;28;20075;-66
2023/12/19 10:05:00;;;;;;;16.70;8.68;;;;;;;;;;5051203;28;20037;-66
2023/12/19 10:07:29;;;;;;;16.10;9.50;;;;;;;;;;5050925;28;20408;-66
2023/12/19 10:09:56;;;;;;;18.00;9.23;;;;;;;;;;5051567;28;20041;-66
2023/12/19 10:12:27;;;;;;;18.67;9.57;;;;;;;;;;5052390;28;20040;-66
2023/12/19 10:14:53;;;;;;;16.52;8.90;;;;;;;;;;5058548;28;20513;-67
2023/12/19 10:17:19;;;;;;;16.73;9.70;;;;;;;;;;5058309;28;20036;-67
2023/12/19 10:19:45;;;;;;;20.33;10.07;;;;;;;;;;5052565;28;20041;-67
2023/12/19 10:22:19;;;;;;;16.50;9.25;;;;;;;;;;5050659;28;20416;-66
2023/12/19 10:24:46;;;;;;;19.73;10.00;;;;;;;;;;5044160;28;20472;-67
2023/12/19 10:27:12;;;;;;;16.10;9.10;;;;;;;;;;5050175;28;20419;-65
2023/12/19 10:29:38;;;;;;;19.27;10.02;;;;;;;;;;5050918;28;20056;-69
2023/12/19 10:32:17;;;;;;;14.95;8.70;;;;;;;;;;5045834;28;20037;-67
2023/12/19 10:34:44;;;;;;;16.33;9.02;;;;;;;;;;5050137;28;20116;-69
2023/12/19 10:37:10;;;;;;;16.00;9.07;;;;;;;;;;5051200;22;20033;31
2023/12/19 10:39:36;;;;;;;20.02;9.88;;;;;;;;;;5033100;28;20253;-67
2023/12/19 10:42:07;;;;;;;20.63;10.23;;;;;;;;;;5052394;28;20041;-67
2023/12/19 10:44:33;;;;;;;18.58;9.27;;;;;;;;;;5050566;28;20063;-67
2023/12/19 10:47:03;;;;;;;18.05;10.13;;;;;;;;;;5052093;28;20041;-66
2023/12/19 10:49:29;;;;;;;20.17;10.65;;;;;;;;;;5051817;28;20048;-65
2023/12/19 10:51:57;;;;;;;20.05;10.80;;;;;;;;;;5050975;28;20040;-66
2023/12/19 10:54:25;;;;;;;20.45;10.77;;;;;;;;;;5050245;28;20083;-67
2023/12/19 10:57:00;;;;;;;19.40;10.05;;;;;;;;;;5052093;28;20045;-67
2023/12/19 10:59:33;;;;;;;20.73;10.50;;;;;;;;;;5051958;28;20068;-67
2023/12/19 11:02:00;;;;;;;20.80;10.43;;;;;;;;;;5051770;28;20484;-67
2023/12/19 11:04:30;;;;;;;21.38;10.27;;;;;;;;;;5050359;28;20094;-67
2023/12/19 11:06:57;;;;;;;19.08;9.43;;;;;;;;;;5051494;28;20048;-66
2023/12/19 11:09:29;;;;;;;19.98;10.15;;;;;;;;;;5051733;28;20044;-67
2023/12/19 11:11:55;;;;;;;19.33;10.93;;;;;;;;;;5051969;28;20401;-66
2023/12/19 11:14:24;;;;;;;20.20;10.82;;;;;;;;;;5051122;28;20138;-67
2023/12/19 11:16:54;;;;;;;22.25;11.02;;;;;;;;;;5051266;28;20045;-66
2023/12/19 11:19:23;;;;;;;20.50;11.27;;;;;;;;;;5052275;28;20481;-67
2023/12/19 11:22:07;;;;;;;19.02;10.30;;;;;;;;;;5051727;28;20412;-67
2023/12/19 11:24:41;;;;;;;20.40;11.00;;;;;;;;;;5050945;28;20120;-66
2023/12/19 11:27:16;;;;;;;24.13;11.82;;;;;;;;;;5050169;28;20091;-66
2023/12/19 11:29:54;;;;;;;18.85;10.82;;;;;;;;;;5050901;28;20040;-70
2023/12/19 11:32:29;;;;;;;19.55;11.00;;;;;;;;;;5030857;28;20044;-67
2023/12/19 11:35:12;;;;;;;21.13;11.32;;;;;;;;;;5043230;28;20048;-68
2023/12/19 11:37:44;;;;;;;22.20;11.68;;;;;;;;;;5049875;28;20098;-66
2023/12/19 11:40:31;;;;;;;17.65;10.88;;;;;;;;;;5051551;28;20072;-65
2023/12/19 11:42:57;;;;;;;21.67;11.57;;;;;;;;;;5041047;28;20049;-65
2023/12/19 11:45:23;;;;;;;19.17;11.07;;;;;;;;;;5051420;28;20396;-63
2023/12/19 11:47:49;;;;;;;17.55;11.13;;;;;;;;;;5050420;28;20049;-63
2023/12/19 11:50:33;;;;;;;18.45;10.70;;;;;;;;;;5032621;28;20041;-65
2023/12/19 11:52:59;;;;;;;19.23;10.75;;;;;;;;;;5050868;28;20404;-67
2023/12/19 11:55:25;;;;;;;19.10;11.20;;;;;;;;;;5049428;28;20049;-67
2023/12/19 11:57:51;;;;;;;19.25;11.02;;;;;;;;;;5044660;28;20435;-67
2023/12/19 12:00:19;;;;;;;17.95;10.50;;;;;;;;;;5013616;28;20129;-66
2023/12/19 12:02:45;;;;;;;18.92;10.90;;;;;;;;;;5031061;28;20123;-66
2023/12/19 12:05:13;;;;;;;19.30;10.93;;;;;;;;;;5031435;28;20045;-66
2023/12/19 12:07:50;;;;;;;18.17;10.82;;;;;;;;;;5030749;28;20080;-66
2023/12/19 12:10:21;;;;;;;18.98;11.48;;;;;;;;;;5031548;28;20485;-67
2023/12/19 12:12:48;;;;;;;18.20;10.77;;;;;;;;;;5030231;28;20049;-67
2023/12/19 12:15:16;;;;;;;17.40;10.40;;;;;;;;;;5031157;28;20049;-67
2023/12/19 12:17:43;;;;;;;15.80;9.55;;;;;;;;;;5030098;28;20565;-69
2023/12/19 12:20:11;;;;;;;16.38;10.43;;;;;;;;;;5031500;28;20058;-70
2023/12/19 12:22:37;;;;;;;19.70;10.73;;;;;;;;;;5029883;28;20052;-69
2023/12/19 12:25:03;;;;;;;16.67;11.05;;;;;;;;;;5030948;28;20042;-69
2023/12/19 12:27:30;;;;;;;19.45;10.95;;;;;;;;;;5033124;28;20090;-69
2023/12/19 12:29:57;;;;;;;16.83;10.52;;;;;;;;;;5033810;28;20049;-68
2023/12/19 12:32:27;;;;;;;18.15;10.52;;;;;;;;;;5033903;28;20397;-68
2023/12/19 12:34:53;;;;;;;15.73;10.30;;;;;;;;;;5033254;28;20080;-68
2023/12/19 12:37:19;;;;;;;19.30;11.05;;;;;;;;;;5033301;28;20041;-68
2023/12/19 12:39:45;;;;;;;15.77;10.02;;;;;;;;;;5039272;28;20033;-68
2023/12/19 12:42:15;;;;;;;17.40;10.07;;;;;;;;;;5052486;28;20092;-67
2023/12/19 12:44:41;;;;;;;14.80;9.27;;;;;;;;;;5054224;28;20045;-67
2023/12/19 12:47:08;;;;;;;15.75;9.15;;;;;;;;;;5054215;28;20106;-67
2023/12/19 12:49:35;;;;;;;16.77;9.77;;;;;;;;;;5054676;28;20071;-67
2023/12/19 12:52:01;;;;;;;14.93;9.18;;;;;;;;;;5052704;28;20095;-66
2023/12/19 12:54:30;;;;;;;16.67;9.90;;;;;;;;;;5054672;28;20116;-67
2023/12/19 12:56:56;;;;;;;18.38;9.55;;;;;;;;;;5053862;28;20045;-68
2023/12/19 12:59:28;;;;;;;17.02;9.88;;;;;;;;;;5052850;28;20102;-68
2023/12/19 13:01:55;;;;;;;16.95;9.45;;;;;;;;;;5053894;28;20045;-67
2023/12/19 13:04:22;;;;;;;16.83;10.07;;;;;;;;;;5052719;28;20049;-67
2023/12/19 13:06:50;;;;;;;15.77;10.02;;;;;;;;;;5052367;28;20405;-67
2023/12/19 13:09:19;;;;;;;15.55;10.13;;;;;;;;;;5053888;28;20045;-67
2023/12/19 13:11:47;;;;;;;14.80;9.38;;;;;;;;;;5052437;28;20496;-67
2023/12/19 13:14:13;;;;;;;17.13;9.10;;;;;;;;;;5052139;28;20116;-67
2023/12/19 13:16:39;;;;;;;12.25;8.68;;;;;;;;;;5054110;28;20125;-67
2023/12/19 13:19:05;;;;;;;14.23;9.32;;;;;;;;;;5053662;28;20611;-67
2023/12/19 13:21:32;;;;;;;17.00;9.07;;;;;;;;;;5052777;28;20087;-67
2023/12/19 13:23:58;;;;;;;16.08;9.55;;;;;;;;;;5051479;28;20505;-67
2023/12/19 13:26:32;;;;;;;15.05;9.45;;;;;;;;;;5052473;28;20049;-66
2023/12/19 13:28:59;;;;;;;13.23;9.00;;;;;;;;;;5053627;28;20448;-67
2023/12/19 13:31:26;;;;;;;14.68;9.05;;;;;;;;;;5052116;28;20040;-67
2023/12/19 13:33:52;;;;;;;17.00;9.30;;;;;;;;;;5053092;28;20088;-66
2023/12/19 13:36:20;;;;;;;15.63;9.73;;;;;;;;;;5052104;28;20123;-67
2023/12/19 13:38:46;;;;;;;18.33;9.82;;;;;;;;;;5051349;28;20397;-68
2023/12/19 13:41:15;;;;;;;15.77;9.35;;;;;;;;;;5053425;28;20041;-68
2023/12/19 13:43:41;;;;;;;15.02;9.13;;;;;;;;;;5051676;28;20417;-68
2023/12/19 13:46:07;;;;;;;14.48;8.77;;;;;;;;;;5052076;28;20041;-68
2023/12/19 13:48:34;;;;;;;15.77;9.02;;;;;;;;;;5052106;28;20041;-68
2023/12/19 13:51:00;;;;;;;14.48;8.55;;;;;;;;;;5053193;28;20041;-68
2023/12/19 13:53:26;;;;;;;13.05;7.72;;;;;;;;;;5034963;28;20049;-68
2023/12/19 13:55:52;;;;;;;14.35;8.48;;;;;;;;;;5053312;28;20397;-63
2023/12/19 13:58:18;;;;;;;13.40;8.05;;;;;;;;;;5052248;28;20110;-68
2023/12/19 14:00:45;;;;;;;15.27;9.13;;;;;;;;;;5052364;28;20119;-67
2023/12/19 14:03:13;;;;;;;12.57;8.27;;;;;;;;;;5052983;28;20049;-66
2023/12/19 14:05:42;;;;;;;15.07;9.02;;;;;;;;;;5051312;28;20073;-67
2023/12/19 14:08:09;;;;;;;14.27;8.57;;;;;;;;;;5052716;28;20436;-68
2023/12/19 14:10:35;;;;;;;15.75;9.27;;;;;;;;;;5051560;28;20052;-67
2023/12/19 14:13:03;;;;;;;14.60;7.97;;;;;;;;;;5051252;28;20141;-68
2023/12/19 14:15:29;;;;;;;16.30;9.52;;;;;;;;;;5052785;28;20041;-68
2023/12/19 14:17:55;;;;;;;15.82;9.15;;;;;;;;;;5051395;28;20037;-68
2023/12/19 14:20:21;;;;;;;14.45;8.27;;;;;;;;;;5051953;28;20049;-68
2023/12/19 14:22:47;;;;;;;17.88;11.65;;;;;;;;;;5052823;28;20078;-69